createdAt,value
2017-06-09T00:00:35.953Z,0
2017-06-09T00:01:46.240Z,0
2017-06-09T00:02:56.543Z,0
2017-06-09T00:04:06.840Z,0
2017-06-09T00:05:17.142Z,0
2017-06-09T00:06:27.672Z,0
2017-06-09T00:07:37.665Z,0
2017-06-09T00:08:47.936Z,0
2017-06-09T00:09:57.909Z,0
2017-06-09T00:11:08.185Z,0
2017-06-09T00:12:18.729Z,0
2017-06-09T00:13:29.012Z,0
2017-06-09T00:14:39.288Z,0
2017-06-09T00:15:49.259Z,0
2017-06-09T00:16:59.239Z,0
2017-06-09T00:18:09.152Z,0
2017-06-09T00:19:19.424Z,0
2017-06-09T00:20:29.704Z,0
2017-06-09T00:21:39.988Z,0
2017-06-09T00:22:50.268Z,0
2017-06-09T00:24:00.172Z,0
2017-06-09T00:25:10.139Z,0
2017-06-09T00:26:20.430Z,0
2017-06-09T00:27:30.710Z,0
2017-06-09T00:28:40.991Z,0
2017-06-09T00:29:51.529Z,0
2017-06-09T00:31:01.812Z,0
2017-06-09T00:32:12.092Z,0
2017-06-09T00:33:22.365Z,0
2017-06-09T00:34:32.655Z,0
2017-06-09T00:35:43.190Z,0
2017-06-09T00:36:53.161Z,0
2017-06-09T00:38:03.445Z,0
2017-06-09T00:39:13.734Z,0
2017-06-09T00:40:24.019Z,0
2017-06-09T00:41:34.559Z,0
2017-06-09T00:42:44.852Z,0
2017-06-09T00:43:54.820Z,0
2017-06-09T00:45:05.108Z,0
2017-06-09T00:46:15.388Z,0
2017-06-09T00:47:25.917Z,0
2017-06-09T00:48:35.876Z,0
2017-06-09T00:49:45.541Z,0
2017-06-09T00:50:55.819Z,0
2017-06-09T00:52:05.792Z,0
2017-06-09T00:53:16.324Z,0
2017-06-09T00:54:26.603Z,0
2017-06-09T00:55:36.883Z,0
2017-06-09T00:56:46.896Z,0
2017-06-09T00:57:56.871Z,0
2017-06-09T00:59:07.397Z,0
2017-06-09T01:00:17.675Z,0
2017-06-09T01:01:27.643Z,0
2017-06-09T01:02:37.954Z,0
2017-06-09T01:03:48.235Z,0
2017-06-09T01:04:58.818Z,0
2017-06-09T01:06:09.092Z,0
2017-06-09T01:07:19.059Z,0
2017-06-09T01:08:29.336Z,0
2017-06-09T01:09:39.624Z,0
2017-06-09T01:10:49.846Z,0
2017-06-09T01:12:00.133Z,0
2017-06-09T01:13:10.415Z,0
2017-06-09T01:14:20.701Z,0
2017-06-09T01:15:30.995Z,0
2017-06-09T01:16:41.524Z,0
2017-06-09T01:17:51.494Z,0
2017-06-09T01:19:01.148Z,0
2017-06-09T01:20:11.434Z,0
2017-06-09T01:21:21.718Z,0
2017-06-09T01:22:31.956Z,0
2017-06-09T01:23:41.930Z,0
2017-06-09T01:24:52.205Z,0
2017-06-09T01:26:02.177Z,0
2017-06-09T01:27:12.473Z,0
2017-06-09T01:28:22.694Z,0
2017-06-09T01:29:32.971Z,0
2017-06-09T01:30:43.251Z,0
2017-06-09T01:31:53.540Z,0
2017-06-09T01:33:03.823Z,0
2017-06-09T01:34:14.358Z,0
2017-06-09T01:35:24.317Z,0
2017-06-09T01:36:34.596Z,0
2017-06-09T01:37:44.258Z,0
2017-06-09T01:38:54.539Z,0
2017-06-09T01:40:05.075Z,0
2017-06-09T01:41:15.357Z,0
2017-06-09T01:42:25.317Z,0
2017-06-09T01:43:35.286Z,0
2017-06-09T01:44:45.565Z,0
2017-06-09T01:45:56.100Z,0
2017-06-09T01:47:06.392Z,0
2017-06-09T01:48:16.358Z,0
2017-06-09T01:49:26.672Z,0
2017-06-09T01:50:36.945Z,0
2017-06-09T01:51:47.479Z,0
2017-06-09T01:52:57.770Z,0
2017-06-09T01:54:08.055Z,0
2017-06-09T01:55:18.021Z,0
2017-06-09T01:56:28.297Z,0
2017-06-09T01:57:38.843Z,0
2017-06-09T01:58:49.128Z,0
2017-06-09T01:59:58.776Z,0
2017-06-09T02:01:09.054Z,0
2017-06-09T02:02:19.333Z,0
2017-06-09T02:03:29.852Z,0
2017-06-09T02:04:39.508Z,0
2017-06-09T02:05:49.486Z,0
2017-06-09T02:06:59.452Z,0
2017-06-09T02:08:09.738Z,0
2017-06-09T02:09:20.268Z,0
2017-06-09T02:10:30.544Z,0
2017-06-09T02:11:40.824Z,0
2017-06-09T02:12:51.101Z,0
2017-06-09T02:14:01.379Z,0
2017-06-09T02:15:11.907Z,0
2017-06-09T02:16:22.180Z,0
2017-06-09T02:17:32.462Z,0
2017-06-09T02:18:42.745Z,0
2017-06-09T02:19:53.023Z,0
2017-06-09T02:21:03.241Z,0
2017-06-09T02:22:13.218Z,0
2017-06-09T02:23:23.496Z,0
2017-06-09T02:24:33.779Z,0
2017-06-09T02:25:44.057Z,0
2017-06-09T02:26:54.280Z,0
2017-06-09T02:28:04.253Z,0
2017-06-09T02:29:14.548Z,0
2017-06-09T02:30:24.523Z,0
2017-06-09T02:31:34.799Z,0
2017-06-09T02:32:45.328Z,0
2017-06-09T02:33:55.609Z,0
2017-06-09T02:35:05.587Z,0
2017-06-09T02:36:15.877Z,0
2017-06-09T02:37:26.160Z,0
2017-06-09T02:38:36.374Z,0
2017-06-09T02:39:46.335Z,0
2017-06-09T02:40:56.309Z,0
2017-06-09T02:42:06.270Z,0
2017-06-09T02:43:16.552Z,0
2017-06-09T02:44:27.079Z,0
2017-06-09T02:45:37.365Z,0
2017-06-09T02:46:47.639Z,0
2017-06-09T02:47:57.921Z,0
2017-06-09T02:49:08.201Z,0
2017-06-09T02:50:18.727Z,0
2017-06-09T02:51:28.704Z,0
2017-06-09T02:52:38.986Z,0
2017-06-09T02:53:48.944Z,0
2017-06-09T02:54:59.232Z,0
2017-06-09T02:56:09.450Z,0
2017-06-09T02:57:19.728Z,0
2017-06-09T02:58:29.697Z,0
2017-06-09T02:59:40.024Z,0
2017-06-09T03:00:50.298Z,0
2017-06-09T03:02:00.841Z,0
2017-06-09T03:03:11.124Z,0
2017-06-09T03:04:21.410Z,0
2017-06-09T03:05:31.373Z,0
2017-06-09T03:06:41.646Z,0
2017-06-09T03:07:52.181Z,0
2017-06-09T03:09:02.471Z,0
2017-06-09T03:10:12.447Z,0
2017-06-09T03:11:22.725Z,0
2017-06-09T03:12:33.003Z,0
2017-06-09T03:13:43.574Z,0
2017-06-09T03:14:53.860Z,0
2017-06-09T03:16:04.155Z,0
2017-06-09T03:17:14.430Z,0
2017-06-09T03:18:24.702Z,0
2017-06-09T03:19:35.231Z,0
2017-06-09T03:20:45.210Z,0
2017-06-09T03:21:55.493Z,0
2017-06-09T03:23:05.806Z,0
2017-06-09T03:24:16.102Z,0
2017-06-09T03:25:26.628Z,5
2017-06-09T03:26:36.900Z,5
2017-06-09T03:27:46.875Z,5
2017-06-09T03:28:57.165Z,5
2017-06-09T03:30:06.820Z,0
2017-06-09T03:31:16.735Z,0
2017-06-09T03:32:27.049Z,0
2017-06-09T03:33:37.339Z,0
2017-06-09T03:34:47.620Z,0
2017-06-09T03:35:57.898Z,0
2017-06-09T03:37:08.421Z,0
2017-06-09T03:38:18.696Z,0
2017-06-09T03:39:28.356Z,0
2017-06-09T03:40:38.643Z,0
2017-06-09T03:41:48.923Z,0
2017-06-09T03:42:59.685Z,0
2017-06-09T03:44:09.355Z,0
2017-06-09T03:45:19.321Z,0
2017-06-09T03:46:29.597Z,0
2017-06-09T03:47:39.880Z,0
2017-06-09T03:48:50.405Z,0
2017-06-09T03:50:00.680Z,30
2017-06-09T03:51:10.954Z,30
2017-06-09T03:52:21.244Z,35
2017-06-09T03:53:31.516Z,35
2017-06-09T03:54:42.050Z,35
2017-06-09T03:55:52.327Z,35
2017-06-09T03:57:02.613Z,35
2017-06-09T03:58:12.890Z,35
2017-06-09T03:59:22.853Z,35
2017-06-09T04:00:33.378Z,35
2017-06-09T04:01:43.043Z,40
2017-06-09T04:02:53.329Z,45
2017-06-09T04:04:03.622Z,55
2017-06-09T04:05:13.900Z,55
2017-06-09T04:06:24.430Z,55
2017-06-09T04:07:34.763Z,50
2017-06-09T04:08:45.045Z,60
2017-06-09T04:09:55.329Z,60
2017-06-09T04:11:05.615Z,55
2017-06-09T04:12:16.146Z,60
2017-06-09T04:13:26.423Z,60
2017-06-09T04:14:36.387Z,65
2017-06-09T04:15:46.678Z,80
2017-06-09T04:16:56.962Z,90
2017-06-09T04:18:07.494Z,95
2017-06-09T04:19:17.774Z,105
2017-06-09T04:20:27.471Z,105
2017-06-09T04:21:37.757Z,110
2017-06-09T04:22:48.065Z,105
2017-06-09T04:23:58.594Z,110
2017-06-09T04:25:08.588Z,115
2017-06-09T04:26:18.973Z,110
2017-06-09T04:27:28.633Z,110
2017-06-09T04:28:38.926Z,115
2017-06-09T04:29:49.160Z,115
2017-06-09T04:30:59.129Z,115
2017-06-09T04:32:09.111Z,115
2017-06-09T04:33:19.397Z,115
2017-06-09T04:34:29.674Z,115
2017-06-09T04:35:40.207Z,115
2017-06-09T04:36:50.490Z,120
2017-06-09T04:38:00.785Z,120
2017-06-09T04:39:11.071Z,120
2017-06-09T04:40:21.356Z,125
2017-06-09T04:41:31.889Z,125
2017-06-09T04:42:42.173Z,125
2017-06-09T04:43:52.148Z,125
2017-06-09T04:45:02.442Z,130
2017-06-09T04:46:12.723Z,125
2017-06-09T04:47:23.263Z,125
2017-06-09T04:48:33.547Z,125
2017-06-09T04:49:43.837Z,125
2017-06-09T04:50:54.139Z,130
2017-06-09T04:52:04.115Z,130
2017-06-09T04:53:14.343Z,130
2017-06-09T04:54:24.331Z,130
2017-06-09T04:55:34.660Z,130
2017-06-09T04:56:44.947Z,130
2017-06-09T04:57:54.933Z,125
2017-06-09T04:59:05.499Z,125
2017-06-09T05:00:15.787Z,125
2017-06-09T05:01:25.760Z,125
2017-06-09T05:02:36.042Z,125
2017-06-09T05:03:46.331Z,130
2017-06-09T05:04:56.568Z,130
2017-06-09T05:06:06.564Z,130
2017-06-09T05:07:16.549Z,130
2017-06-09T05:08:26.533Z,130
2017-06-09T05:09:36.199Z,135
2017-06-09T05:10:46.745Z,130
2017-06-09T05:11:57.042Z,135
2017-06-09T05:13:07.329Z,135
2017-06-09T05:14:17.615Z,135
2017-06-09T05:15:27.586Z,135
2017-06-09T05:16:38.138Z,140
2017-06-09T05:17:48.432Z,135
2017-06-09T05:18:58.718Z,140
2017-06-09T05:20:08.724Z,140
2017-06-09T05:21:19.008Z,140
2017-06-09T05:22:29.231Z,140
2017-06-09T05:23:39.218Z,135
2017-06-09T05:24:49.506Z,135
2017-06-09T05:25:59.479Z,135
2017-06-09T05:27:09.758Z,135
2017-06-09T05:28:20.288Z,135
2017-06-09T05:29:29.951Z,135
2017-06-09T05:30:40.240Z,135
2017-06-09T05:31:50.206Z,130
2017-06-09T05:33:00.498Z,130
2017-06-09T05:34:11.033Z,125
2017-06-09T05:35:21.020Z,125
2017-06-09T05:36:31.330Z,125
2017-06-09T05:37:41.621Z,125
2017-06-09T05:38:51.289Z,125
2017-06-09T05:40:01.874Z,125
2017-06-09T05:41:12.173Z,125
2017-06-09T05:42:22.144Z,120
2017-06-09T05:43:32.423Z,125
2017-06-09T05:44:42.698Z,125
2017-06-09T05:45:53.238Z,125
2017-06-09T05:47:03.216Z,125
2017-06-09T05:48:13.510Z,125
2017-06-09T05:49:23.794Z,130
2017-06-09T05:50:34.071Z,130
2017-06-09T05:51:44.607Z,130
2017-06-09T05:52:54.888Z,130
2017-06-09T05:54:05.176Z,130
2017-06-09T05:55:15.461Z,130
2017-06-09T05:56:25.748Z,130
2017-06-09T05:57:36.315Z,125
2017-06-09T05:58:46.295Z,125
2017-06-09T05:59:56.588Z,120
2017-06-09T06:01:06.879Z,120
2017-06-09T06:02:16.888Z,120
2017-06-09T06:03:27.422Z,120
2017-06-09T06:04:37.718Z,120
2017-06-09T06:05:47.704Z,115
2017-06-09T06:06:57.989Z,120
2017-06-09T06:08:08.282Z,120
2017-06-09T06:09:18.817Z,115
2017-06-09T06:10:29.098Z,120
2017-06-09T06:11:39.380Z,120
2017-06-09T06:12:49.365Z,120
2017-06-09T06:13:58.727Z,120
2017-06-09T06:15:09.272Z,130
2017-06-09T06:16:19.544Z,125
2017-06-09T06:17:29.523Z,125
2017-06-09T06:18:39.814Z,125
2017-06-09T06:19:50.098Z,125
2017-06-09T06:21:00.636Z,125
2017-06-09T06:22:10.623Z,125
2017-06-09T06:23:20.596Z,125
2017-06-09T06:24:30.567Z,125
2017-06-09T06:25:40.537Z,125
2017-06-09T06:26:50.765Z,125
2017-06-09T06:28:01.074Z,125
2017-06-09T06:29:11.356Z,125
2017-06-09T06:30:21.938Z,125
2017-06-09T06:31:32.219Z,120
2017-06-09T06:32:42.764Z,125
2017-06-09T06:33:52.744Z,125
2017-06-09T06:35:02.724Z,125
2017-06-09T06:36:13.013Z,125
2017-06-09T06:37:22.998Z,130
2017-06-09T06:38:33.544Z,130
2017-06-09T06:39:43.518Z,125
2017-06-09T06:40:53.499Z,115
2017-06-09T06:42:03.798Z,120
2017-06-09T06:43:14.080Z,120
2017-06-09T06:44:24.308Z,125
2017-06-09T06:45:34.597Z,130
2017-06-09T06:46:44.942Z,130
2017-06-09T06:47:54.919Z,135
2017-06-09T06:49:04.887Z,140
2017-06-09T06:50:15.439Z,140
2017-06-09T06:51:25.434Z,145
2017-06-09T06:52:35.717Z,145
2017-06-09T06:53:46.009Z,145
2017-06-09T06:54:56.282Z,140
2017-06-09T06:56:06.520Z,140
2017-06-09T06:57:16.190Z,135
2017-06-09T06:58:26.481Z,130
2017-06-09T06:59:36.456Z,125
2017-06-09T07:00:46.739Z,120
2017-06-09T07:01:57.287Z,125
2017-06-09T07:03:07.577Z,125
2017-06-09T07:04:17.559Z,125
2017-06-09T07:05:27.529Z,125
2017-06-09T07:06:37.839Z,130
2017-06-09T07:07:47.755Z,130
2017-06-09T07:08:58.057Z,125
2017-06-09T07:10:08.349Z,120
2017-06-09T07:11:18.024Z,115
2017-06-09T07:12:28.002Z,110
2017-06-09T07:13:38.218Z,115
2017-06-09T07:14:48.513Z,115
2017-06-09T07:15:58.799Z,115
2017-06-09T07:17:09.084Z,115
2017-06-09T07:18:18.770Z,120
2017-06-09T07:19:29.298Z,120
2017-06-09T07:20:39.584Z,120
2017-06-09T07:21:49.888Z,120
2017-06-09T07:23:00.172Z,125
2017-06-09T07:24:10.452Z,120
2017-06-09T07:25:21.007Z,115
2017-06-09T07:26:31.304Z,115
2017-06-09T07:27:40.971Z,120
2017-06-09T07:28:51.263Z,115
2017-06-09T07:30:01.572Z,115
2017-06-09T07:31:12.116Z,115
2017-06-09T07:32:22.395Z,110
2017-06-09T07:33:32.744Z,110
2017-06-09T07:34:42.723Z,105
2017-06-09T07:35:52.702Z,105
2017-06-09T07:37:03.240Z,105
2017-06-09T07:38:13.541Z,105
2017-06-09T07:39:23.517Z,105
2017-06-09T07:40:33.178Z,105
2017-06-09T07:41:43.145Z,105
2017-06-09T07:42:53.371Z,105
2017-06-09T07:44:03.365Z,105
2017-06-09T07:45:13.034Z,100
2017-06-09T07:46:23.351Z,100
2017-06-09T07:47:33.328Z,105
2017-06-09T07:48:43.870Z,105
2017-06-09T07:49:53.849Z,105
2017-06-09T07:51:04.141Z,110
2017-06-09T07:52:14.454Z,110
2017-06-09T07:53:24.754Z,110
2017-06-09T07:54:35.294Z,110
2017-06-09T07:55:45.584Z,110
2017-06-09T07:56:55.904Z,105
2017-06-09T07:58:06.247Z,105
2017-06-09T07:59:16.531Z,105
2017-06-09T08:00:26.754Z,105
2017-06-09T08:01:36.729Z,100
2017-06-09T08:02:47.018Z,100
2017-06-09T08:03:57.235Z,100
2017-06-09T08:05:07.243Z,100
2017-06-09T08:06:17.775Z,100
2017-06-09T08:07:28.064Z,100
2017-06-09T08:08:38.042Z,100
2017-06-09T08:09:48.344Z,100
2017-06-09T08:10:58.629Z,105
2017-06-09T08:12:08.862Z,105
2017-06-09T08:13:19.147Z,105
2017-06-09T08:14:29.443Z,105
2017-06-09T08:15:39.744Z,105
2017-06-09T08:16:49.405Z,105
2017-06-09T08:17:59.631Z,105
2017-06-09T08:19:09.298Z,100
2017-06-09T08:20:19.584Z,100
2017-06-09T08:21:29.560Z,100
2017-06-09T08:22:39.864Z,100
2017-06-09T08:23:50.407Z,100
2017-06-09T08:25:00.699Z,100
2017-06-09T08:26:10.993Z,95
2017-06-09T08:27:21.285Z,95
2017-06-09T08:28:31.297Z,95
2017-06-09T08:29:41.573Z,95
2017-06-09T08:30:51.250Z,100
2017-06-09T08:32:01.544Z,100
2017-06-09T08:33:11.844Z,100
2017-06-09T08:34:22.144Z,100
2017-06-09T08:35:32.756Z,100
2017-06-09T08:36:43.043Z,95
2017-06-09T08:37:53.037Z,95
2017-06-09T08:39:03.353Z,95
2017-06-09T08:40:13.642Z,90
2017-06-09T08:41:24.182Z,90
2017-06-09T08:42:34.164Z,85
2017-06-09T08:43:44.145Z,85
2017-06-09T08:44:54.446Z,85
2017-06-09T08:46:04.738Z,80
2017-06-09T08:47:15.268Z,80
2017-06-09T08:48:25.241Z,80
2017-06-09T08:49:35.533Z,85
2017-06-09T08:50:45.819Z,85
2017-06-09T08:51:55.789Z,85
2017-06-09T08:53:06.343Z,85
2017-06-09T08:54:16.630Z,85
2017-06-09T08:55:26.911Z,85
2017-06-09T08:56:37.208Z,85
2017-06-09T08:57:47.230Z,85
2017-06-09T08:58:57.783Z,85
2017-06-09T09:00:08.072Z,85
2017-06-09T09:01:17.747Z,80
2017-06-09T09:02:27.745Z,80
2017-06-09T09:03:38.044Z,80
2017-06-09T09:04:48.610Z,80
2017-06-09T09:05:58.904Z,80
2017-06-09T09:07:09.199Z,80
2017-06-09T09:08:19.170Z,80
2017-06-09T09:09:29.151Z,80
2017-06-09T09:10:39.685Z,75
2017-06-09T09:11:49.976Z,75
2017-06-09T09:13:00.268Z,75
2017-06-09T09:14:10.561Z,75
2017-06-09T09:15:20.860Z,75
2017-06-09T09:16:31.086Z,75
2017-06-09T09:17:41.378Z,75
2017-06-09T09:18:51.665Z,75
2017-06-09T09:20:01.952Z,75
2017-06-09T09:21:11.922Z,75
2017-06-09T09:22:22.195Z,75
2017-06-09T09:23:32.496Z,70
2017-06-09T09:24:42.785Z,70
2017-06-09T09:25:52.750Z,70
2017-06-09T09:27:02.134Z,70
2017-06-09T09:28:12.668Z,70
2017-06-09T09:29:22.950Z,70
2017-06-09T09:30:32.933Z,70
2017-06-09T09:31:42.911Z,70
2017-06-09T09:32:53.192Z,70
2017-06-09T09:34:03.723Z,70
2017-06-09T09:35:13.705Z,70
2017-06-09T09:36:24.002Z,70
2017-06-09T09:37:34.293Z,70
2017-06-09T09:38:44.584Z,70
2017-06-09T09:39:54.805Z,70
2017-06-09T09:41:04.777Z,70
2017-06-09T09:42:15.066Z,70
2017-06-09T09:43:25.354Z,70
2017-06-09T09:44:35.330Z,70
2017-06-09T09:45:45.866Z,70
2017-06-09T09:46:56.157Z,70
2017-06-09T09:48:05.824Z,70
2017-06-09T09:49:16.116Z,70
2017-06-09T09:50:26.091Z,70
2017-06-09T09:51:36.621Z,70
2017-06-09T09:52:46.908Z,70
2017-06-09T09:53:57.190Z,70
2017-06-09T09:55:07.477Z,70
2017-06-09T09:56:17.806Z,70
2017-06-09T09:57:28.104Z,70
2017-06-09T09:58:38.081Z,70
2017-06-09T09:59:48.369Z,70
2017-06-09T10:00:58.665Z,65
2017-06-09T10:02:08.017Z,65
2017-06-09T10:03:18.243Z,65
2017-06-09T10:04:28.215Z,65
2017-06-09T10:05:38.504Z,65
2017-06-09T10:06:48.790Z,65
2017-06-09T10:07:59.091Z,65
2017-06-09T10:09:09.636Z,65
2017-06-09T10:10:19.915Z,65
2017-06-09T10:11:30.206Z,65
2017-06-09T10:12:40.513Z,65
2017-06-09T10:13:50.814Z,65
2017-06-09T10:15:01.061Z,65
2017-06-09T10:16:11.347Z,65
2017-06-09T10:17:21.323Z,65
2017-06-09T10:18:31.305Z,65
2017-06-09T10:19:41.597Z,65
2017-06-09T10:20:52.143Z,65
2017-06-09T10:22:02.440Z,65
2017-06-09T10:23:12.712Z,65
2017-06-09T10:24:22.061Z,65
2017-06-09T10:25:32.361Z,65
2017-06-09T10:26:42.283Z,65
2017-06-09T10:27:52.569Z,65
2017-06-09T10:29:02.851Z,65
2017-06-09T10:30:12.848Z,65
2017-06-09T10:31:23.135Z,65
2017-06-09T10:32:33.663Z,65
2017-06-09T10:33:43.946Z,65
2017-06-09T10:34:54.235Z,65
2017-06-09T10:36:04.222Z,65
2017-06-09T10:37:14.526Z,65
2017-06-09T10:38:24.766Z,65
2017-06-09T10:39:35.084Z,65
2017-06-09T10:40:45.065Z,65
2017-06-09T10:41:55.371Z,65
2017-06-09T10:43:05.661Z,65
2017-06-09T10:44:16.202Z,65
2017-06-09T10:45:26.492Z,60
2017-06-09T10:46:36.464Z,60
2017-06-09T10:47:46.481Z,65
2017-06-09T10:48:56.449Z,65
2017-06-09T10:50:06.990Z,65
2017-06-09T10:51:17.279Z,65
2017-06-09T10:52:27.570Z,70
2017-06-09T10:53:37.852Z,70
2017-06-09T10:54:48.142Z,70
2017-06-09T10:55:58.691Z,65
2017-06-09T10:57:08.352Z,65
2017-06-09T10:58:18.644Z,65
2017-06-09T10:59:28.936Z,65
2017-06-09T11:00:39.246Z,70
2017-06-09T11:01:49.482Z,70
2017-06-09T11:02:59.803Z,75
2017-06-09T11:04:09.766Z,85
2017-06-09T11:05:20.051Z,90
2017-06-09T11:06:30.028Z,95
2017-06-09T11:07:40.628Z,100
2017-06-09T11:08:50.916Z,105
2017-06-09T11:10:01.214Z,105
2017-06-09T11:11:11.197Z,110
2017-06-09T11:12:21.501Z,110
2017-06-09T11:13:32.060Z,105
2017-06-09T11:14:42.037Z,105
2017-06-09T11:15:52.325Z,100
2017-06-09T11:17:02.627Z,100
2017-06-09T11:18:12.932Z,95
2017-06-09T11:19:23.463Z,90
2017-06-09T11:20:33.755Z,90
2017-06-09T11:21:44.048Z,85
2017-06-09T11:22:54.037Z,85
2017-06-09T11:24:04.016Z,85
2017-06-09T11:25:14.561Z,85
2017-06-09T11:26:24.532Z,80
2017-06-09T11:27:34.813Z,80
2017-06-09T11:28:45.097Z,80
2017-06-09T11:29:55.403Z,80
2017-06-09T11:31:05.925Z,80
2017-06-09T11:32:16.210Z,75
2017-06-09T11:33:26.480Z,75
2017-06-09T11:34:36.771Z,70
2017-06-09T11:35:47.056Z,70
2017-06-09T11:36:57.592Z,70
2017-06-09T11:38:07.864Z,70
2017-06-09T11:39:17.530Z,75
2017-06-09T11:40:27.828Z,75
2017-06-09T11:41:38.115Z,80
2017-06-09T11:42:48.653Z,80
2017-06-09T11:43:58.942Z,80
2017-06-09T11:45:08.920Z,75
2017-06-09T11:46:19.203Z,70
2017-06-09T11:47:29.503Z,70
2017-06-09T11:48:39.744Z,65
2017-06-09T11:49:50.029Z,65
2017-06-09T11:50:59.989Z,60
2017-06-09T11:52:09.957Z,60
2017-06-09T11:53:20.236Z,60
2017-06-09T11:54:30.775Z,65
2017-06-09T11:55:41.086Z,65
2017-06-09T11:56:51.374Z,65
2017-06-09T11:58:00.730Z,65
2017-06-09T11:59:10.702Z,70
2017-06-09T12:00:21.291Z,70
2017-06-09T12:01:31.570Z,75
2017-06-09T12:02:41.840Z,70
2017-06-09T12:03:51.195Z,70
2017-06-09T12:05:01.481Z,65
2017-06-09T12:06:12.016Z,65
2017-06-09T12:07:22.302Z,0
2017-06-09T12:08:32.275Z,0
2017-06-09T12:09:42.553Z,0
2017-06-09T12:10:52.538Z,0
2017-06-09T12:12:02.757Z,0
2017-06-09T12:13:12.727Z,0
2017-06-09T12:14:23.030Z,0
2017-06-09T12:15:33.302Z,0
2017-06-09T12:16:43.575Z,0
2017-06-09T12:17:54.121Z,0
2017-06-09T12:19:04.409Z,0
2017-06-09T12:20:14.698Z,0
2017-06-09T12:21:24.680Z,0
2017-06-09T12:22:34.966Z,0
2017-06-09T12:23:45.279Z,0
2017-06-09T12:24:55.249Z,0
2017-06-09T12:26:04.906Z,0
2017-06-09T12:27:15.191Z,0
2017-06-09T12:28:25.483Z,0
2017-06-09T12:29:36.020Z,0
2017-06-09T12:30:46.297Z,0
2017-06-09T12:31:56.583Z,0
2017-06-09T12:33:06.867Z,0
2017-06-09T12:34:17.162Z,0
2017-06-09T12:35:27.736Z,0
2017-06-09T12:36:38.018Z,0
2017-06-09T12:37:48.302Z,0
2017-06-09T12:38:58.580Z,0
2017-06-09T12:40:08.871Z,0
2017-06-09T12:41:19.444Z,0
2017-06-09T12:42:29.724Z,0
2017-06-09T12:43:40.014Z,0
2017-06-09T12:44:50.293Z,0
2017-06-09T12:46:00.578Z,0
2017-06-09T12:47:11.127Z,0
2017-06-09T12:48:21.094Z,0
2017-06-09T12:49:31.391Z,0
2017-06-09T12:50:41.673Z,0
2017-06-09T12:51:51.649Z,0
2017-06-09T12:53:01.874Z,0
2017-06-09T12:54:11.862Z,0
2017-06-09T12:55:21.523Z,0
2017-06-09T12:56:31.807Z,0
2017-06-09T12:57:42.099Z,0
2017-06-09T12:58:52.626Z,0
2017-06-09T13:00:02.596Z,0
2017-06-09T13:01:12.572Z,0
2017-06-09T13:02:22.876Z,0
2017-06-09T13:03:33.152Z,0
2017-06-09T13:04:43.778Z,0
2017-06-09T13:05:54.061Z,0
2017-06-09T13:07:04.366Z,0
2017-06-09T13:08:14.331Z,0
2017-06-09T13:09:24.627Z,0
2017-06-09T13:10:35.166Z,0
2017-06-09T13:11:45.464Z,0
2017-06-09T13:12:55.744Z,0
2017-06-09T13:14:05.730Z,0
2017-06-09T13:15:16.026Z,0
2017-06-09T13:16:26.254Z,0
2017-06-09T13:17:35.926Z,0
2017-06-09T13:18:45.898Z,0
2017-06-09T13:19:56.193Z,0
2017-06-09T13:21:06.479Z,0
2017-06-09T13:22:17.011Z,0
2017-06-09T13:23:26.989Z,0
2017-06-09T13:24:37.274Z,0
2017-06-09T13:25:47.248Z,0
2017-06-09T13:26:57.214Z,0
2017-06-09T13:28:07.744Z,0
2017-06-09T13:29:17.724Z,0
2017-06-09T13:30:28.017Z,0
2017-06-09T13:31:38.295Z,0
2017-06-09T13:32:48.603Z,0
2017-06-09T13:33:59.136Z,0
2017-06-09T13:35:09.416Z,0
2017-06-09T13:36:19.695Z,0
2017-06-09T13:37:29.973Z,0
2017-06-09T13:38:40.255Z,0
2017-06-09T13:39:50.791Z,0
2017-06-09T13:41:00.762Z,0
2017-06-09T13:42:11.069Z,0
2017-06-09T13:43:21.050Z,0
2017-06-09T13:44:31.337Z,0
2017-06-09T13:45:41.875Z,0
2017-06-09T13:46:52.161Z,0
2017-06-09T13:48:02.451Z,0
2017-06-09T13:49:12.727Z,0
2017-06-09T13:50:22.704Z,0
2017-06-09T13:51:33.247Z,0
2017-06-09T13:52:43.526Z,0
2017-06-09T13:53:53.506Z,0
2017-06-09T13:55:03.491Z,0
2017-06-09T13:56:13.814Z,0
2017-06-09T13:57:24.066Z,0
2017-06-09T13:58:34.046Z,0
2017-06-09T13:59:44.331Z,0
2017-06-09T14:00:54.617Z,0
2017-06-09T14:02:04.909Z,0
2017-06-09T14:03:15.498Z,0
2017-06-09T14:04:25.180Z,0
2017-06-09T14:05:35.465Z,0
2017-06-09T14:06:45.761Z,0
2017-06-09T14:07:55.730Z,0
2017-06-09T14:09:06.275Z,0
2017-06-09T14:10:16.551Z,0
2017-06-09T14:11:26.526Z,0
2017-06-09T14:12:36.192Z,0
2017-06-09T14:13:46.480Z,0
2017-06-09T14:14:57.008Z,0
2017-06-09T14:16:06.985Z,0
2017-06-09T14:17:16.961Z,0
2017-06-09T14:18:27.255Z,0
2017-06-09T14:19:37.541Z,0
2017-06-09T14:20:47.441Z,0
2017-06-09T14:21:57.442Z,0
2017-06-09T14:23:07.737Z,0
2017-06-09T14:24:17.723Z,0
2017-06-09T14:25:27.709Z,0
2017-06-09T14:26:38.253Z,0
2017-06-09T14:27:48.546Z,0
2017-06-09T14:28:58.825Z,0
2017-06-09T14:30:09.113Z,0
2017-06-09T14:31:19.095Z,0
2017-06-09T14:32:29.685Z,0
2017-06-09T14:33:39.975Z,0
2017-06-09T14:34:49.954Z,0
2017-06-09T14:35:59.948Z,0
2017-06-09T14:37:10.231Z,0
2017-06-09T14:38:20.791Z,0
2017-06-09T14:39:30.453Z,0
2017-06-09T14:40:40.730Z,0
2017-06-09T14:41:51.005Z,0
2017-06-09T14:43:01.296Z,0
2017-06-09T14:44:11.554Z,0
2017-06-09T14:45:21.520Z,0
2017-06-09T14:46:31.508Z,0
2017-06-09T14:47:41.786Z,0
2017-06-09T14:48:51.759Z,0
2017-06-09T14:50:02.301Z,0
2017-06-09T14:51:12.264Z,0
2017-06-09T14:52:22.242Z,0
2017-06-09T14:53:32.526Z,0
2017-06-09T14:54:42.808Z,0
2017-06-09T14:55:53.341Z,0
2017-06-09T14:57:03.617Z,0
2017-06-09T14:58:13.906Z,0
2017-06-09T14:59:24.203Z,0
2017-06-09T15:00:34.472Z,0
2017-06-09T15:01:45.191Z,0
2017-06-09T15:02:54.862Z,0
2017-06-09T15:04:05.147Z,0
2017-06-09T15:05:15.437Z,0
2017-06-09T15:06:25.097Z,0
2017-06-09T15:07:35.637Z,0
2017-06-09T15:08:45.622Z,0
2017-06-09T15:09:55.591Z,0
2017-06-09T15:11:06.077Z,0
2017-06-09T15:12:16.368Z,0
2017-06-09T15:13:26.897Z,0
2017-06-09T15:14:37.186Z,0
2017-06-09T15:15:47.465Z,0
2017-06-09T15:16:57.790Z,0
2017-06-09T15:18:08.068Z,0
2017-06-09T15:19:18.601Z,0
2017-06-09T15:20:28.890Z,0
2017-06-09T15:21:39.191Z,0
2017-06-09T15:22:49.569Z,0
2017-06-09T15:23:59.851Z,0
2017-06-09T15:25:10.386Z,0
2017-06-09T15:26:20.687Z,0
2017-06-09T15:27:30.656Z,0
2017-06-09T15:28:40.626Z,0
2017-06-09T15:29:50.279Z,0
2017-06-09T15:31:00.818Z,0
2017-06-09T15:32:11.110Z,0
2017-06-09T15:33:21.391Z,0
2017-06-09T15:34:31.369Z,0
2017-06-09T15:35:41.761Z,0
2017-06-09T15:36:52.295Z,0
2017-06-09T15:38:02.280Z,0
2017-06-09T15:39:12.561Z,0
2017-06-09T15:40:22.532Z,0
2017-06-09T15:41:32.834Z,0
2017-06-09T15:42:43.365Z,0
2017-06-09T15:43:53.647Z,0
2017-06-09T15:45:03.993Z,0
2017-06-09T15:46:14.295Z,0
2017-06-09T15:47:24.588Z,0
2017-06-09T15:48:35.166Z,0
2017-06-09T15:49:45.444Z,0
2017-06-09T15:50:55.428Z,0
2017-06-09T15:52:05.711Z,0
2017-06-09T15:53:16.012Z,0
2017-06-09T15:54:26.559Z,0
2017-06-09T15:55:36.850Z,0
2017-06-09T15:56:46.824Z,0
2017-06-09T15:57:57.107Z,0
2017-06-09T15:59:07.398Z,0
2017-06-09T16:00:17.933Z,0
2017-06-09T16:01:28.243Z,0
2017-06-09T16:02:38.205Z,0
2017-06-09T16:03:48.166Z,0
2017-06-09T16:04:58.458Z,0
2017-06-09T16:06:08.732Z,0
2017-06-09T16:07:19.011Z,0
2017-06-09T16:08:29.315Z,0
2017-06-09T16:09:39.606Z,0
2017-06-09T16:10:49.882Z,0
2017-06-09T16:12:00.488Z,0
2017-06-09T16:13:10.470Z,0
2017-06-09T16:14:20.760Z,0
2017-06-09T16:15:30.739Z,0
2017-06-09T16:16:41.025Z,0
2017-06-09T16:17:51.567Z,0
2017-06-09T16:19:01.544Z,0
2017-06-09T16:20:11.832Z,0
2017-06-09T16:21:22.110Z,0
2017-06-09T16:22:32.390Z,0
2017-06-09T16:23:42.930Z,0
2017-06-09T16:24:53.231Z,0
2017-06-09T16:26:03.543Z,0
2017-06-09T16:27:13.836Z,0
2017-06-09T16:28:23.822Z,0
2017-06-09T16:29:34.057Z,0
2017-06-09T16:30:44.036Z,0
2017-06-09T16:31:54.331Z,0
2017-06-09T16:33:04.637Z,0
2017-06-09T16:34:14.927Z,0
2017-06-09T16:35:25.477Z,0
2017-06-09T16:36:35.756Z,0
2017-06-09T16:37:46.058Z,0
2017-06-09T16:38:56.028Z,0
2017-06-09T16:40:06.321Z,0
2017-06-09T16:41:16.855Z,0
2017-06-09T16:42:27.133Z,0
2017-06-09T16:43:37.570Z,0
2017-06-09T16:44:47.251Z,0
2017-06-09T16:45:57.543Z,0
2017-06-09T16:47:07.761Z,0
2017-06-09T16:48:18.056Z,0
2017-06-09T16:49:28.354Z,0
2017-06-09T16:50:38.022Z,0